x

Central Gulf Of Alaska - 265nm West Of Cape Ommaney, Akk (46085) Wave Buoy

6:50pm - Mon 26th Jun 2017 All times are UTC.

  • Sig Wave height 4.6ft
  • Peak Period 7s
  • Average Period 5s
  • Wind
    16mph, 18mph gusts
  • Sea Temp 51°f
  • Air Temp 50°f
  • Sea Pressure 1023mb

More Historic Weather Station data

Upgrade to MSW Pro to gain access to the past 30 days of data for over 8000 Wavebouys and Weather Stations around the globe.

Join Pro

Comparision Forecast

View Surf forecast
   
Mon 06/26 6:50pm 4.5ft 7s 5s 16 18 mph 1023mb 51f 50f
5:50pm 4.5ft 6s 5s 16 18 mph 1023mb 51f 49f
4:50pm 5ft 6s 5s 16 18 mph 1023mb 51f 49f
3:50pm 4.5ft 6s 5s 16 22 mph 1022.7mb 51f 49f
2:50pm 4.5ft 6s 5s 18 22 mph 1022.4mb 51f 49f
1:50pm 4.5ft 5s 5s 18 20 mph 1022.1mb 51f 49f
12:50pm 4.5ft 5s 5s 18 22 mph 1021.9mb 51f 49f
11:50am 4.5ft 5s 4s 18 22 mph 1021.9mb 51f 49f
10:50am 4.5ft 4s 4s 18 20 mph 1021.6mb 51f 49f
9:50am 4ft 7s 4s 18 20 mph 1021.5mb 51f 49f
8:50am 3.5ft 4s 4s 18 20 mph 1021.3mb 51f 50f
7:50am 3.5ft 4s 4s 18 20 mph 1021.2mb 51f 50f
6:50am 3.5ft 15s 4s 18 20 mph 1021.1mb 51f 50f
5:50am 3.5ft 14s 5s 13 18 mph 1020.9mb 52f 51f
4:50am 3ft 8s 4s 13 16 mph 1020.7mb 52f 50f
3:50am 3ft 14s 5s 13 18 mph 1020.5mb 52f 50f
2:50am 3.5ft 15s 5s 9 11 mph 1020.2mb 52f 52f
1:50am 3.5ft 15s 5s 11 11 mph 1020.1mb 52f 52f
12:50am 3.5ft 15s 5s 13 16 mph 1019.9mb 52f 52f
Sun 06/25 11:50pm 4ft 15s 5s 11 13 mph 1019.5mb 52f 52f
10:50pm 4ft 7s 5s 9 11 mph 1019mb 52f 52f
9:50pm 4ft 15s 5s 9 13 mph 1018.6mb 51f 52f
8:50pm 4.5ft 15s 5s 13 16 mph 1018.3mb 51f 51f
7:50pm 4ft 8s 5s 13 16 mph 1017.8mb 51f 51f
6:50pm 3.5ft 7s 4s 16 18 mph 1017.3mb 51f 51f
5:50pm 4ft 8s 5s 16 18 mph 1016.9mb 51f 51f
4:50pm 4ft 8s 5s 13 16 mph 1016.5mb 51f 51f
3:50pm 4.5ft 8s 6s 13 16 mph 1016mb 51f 51f
2:50pm 4.5ft 8s 6s 13 16 mph 1015.7mb 51f 51f
1:50pm 4.5ft 8s 6s 11 13 mph 1015.4mb 51f 51f
12:50pm 4.5ft 16s 6s 11 13 mph 1015.1mb 51f 51f
11:50am 4.5ft 8s 6s 11 13 mph 1014.5mb 51f 51f
10:50am 4.5ft 8s 6s 11 13 mph 1014.1mb 51f 51f
9:50am 5.5ft 8s 6s 11 13 mph 1013.8mb 51f 51f
8:50am 6ft 7s 6s 9 11 mph 1013.6mb 51f 51f
7:50am 6ft 8s 7s 9 11 mph 1013.3mb 51f 51f
6:50am 7ft 8s 7s 9 11 mph 1012.8mb 51f 51f
5:50am 7ft 9s 7s 7 9 mph 1012.5mb 51f 51f
4:50am 6ft 9s 6s 9 11 mph 1012.2mb 51f 51f
3:50am 8ft 9s 7s 7 9 mph 1011.9mb 51f 51f
2:50am 8ft 10s 7s 2 4 mph 1011.7mb 51f 51f
1:50am 7ft 10s 7s 7 9 mph 1011.5mb 51f 51f
12:50am 6ft 9s 7s 4 7 mph 1011.3mb 51f 51f
Sat 06/24 11:50pm 6.5ft 9s 7s 7 9 mph 1011.2mb 51f 51f
10:50pm 6ft 8s 6s 4 7 mph 1011.3mb 51f 51f
9:50pm 6ft 8s 6s 7 9 mph 1011.1mb 51f 50f
8:50pm 6ft 7s 6s 9 11 mph 1011mb 51f 50f
7:50pm 6ft 7s 5s 11 13 mph 1010.9mb 51f 50f
6:50pm 6ft 7s 6s 11 13 mph 1010.9mb 51f 50f
5:50pm 5.5ft 7s 5s 11 13 mph 1011mb 51f 50f
4:50pm 5.5ft 7s 5s 13 18 mph 1011.2mb 51f 50f
3:50pm 5.5ft 7s 5s 16 18 mph 1011.2mb 51f 49f
2:50pm 6ft 7s 5s 13 16 mph 1011.6mb 51f 49f
1:50pm 6ft 7s 5s 13 16 mph 1011.6mb 51f 50f
12:50pm 5.5ft 7s 5s 13 16 mph 1011.6mb 51f 50f
11:50am 6ft 7s 6s 16 22 mph 1011.7mb 51f 49f
10:50am 7ft 8s 6s 13 16 mph 1012mb 51f 51f
9:50am 7ft 7s 6s 13 16 mph 1012.3mb 51f 51f
8:50am 8ft 8s 6s 13 18 mph 1012.5mb 51f 51f
7:50am 8ft 7s 6s 16 18 mph 1013mb 51f 51f
6:50am 8.5ft 8s 6s 18 22 mph 1013.5mb 51f 51f
5:50am 9ft 8s 6s 22 27 mph 1013.9mb 51f 51f
4:50am 11ft 7s 6s 27 31 mph 1014.5mb 51f 51f
3:50am 10ft 8s 6s 29 34 mph 1015.8mb 51f 50f
2:50am 11ft 8s 6s 29 34 mph 1016.9mb 51f 51f
1:50am 9ft 7s 6s 29 36 mph 1017.7mb 51f 51f
12:50am 9ft 7s 6s 29 34 mph 1018.7mb 51f 51f
Fri 06/23 11:50pm 8.5ft 7s 5s 29 34 mph 1019.5mb 51f 52f
10:50pm 8ft 7s 5s 29 36 mph 1020.4mb 51f 51f
9:50pm 7.5ft 6s 5s 27 31 mph 1021.6mb 51f 51f
8:50pm 7ft 6s 5s 25 29 mph 1022.4mb 51f 52f
7:50pm 6.5ft 6s 5s 22 27 mph 1022.9mb 51f 52f
6:50pm 6ft 6s 5s 22 27 mph 1023.4mb 51f 52f
5:50pm 4.5ft 5s 4s 25 29 mph 1023.7mb 52f 52f
4:50pm 4.5ft 4s 4s 20 25 mph 1024.9mb 52f 52f
3:50pm 3.5ft 4s 4s 20 25 mph 1025.6mb 53f 52f
2:50pm 3.5ft 4s 4s 20 22 mph 1025.8mb 53f 52f
1:50pm 3ft 13s 4s 18 22 mph 1026.1mb 53f 52f
12:50pm 2.5ft 14s 4s 16 20 mph 1026.8mb 53f 52f
11:50am 2ft 7s 4s 16 18 mph 1027.2mb 53f 52f
10:50am 2.5ft 13s 5s 13 16 mph 1027.7mb 53f 52f
9:50am 2.5ft 15s 6s 11 13 mph 1028mb 53f 52f
8:50am 2.5ft 14s 7s 11 13 mph 1028.1mb 53f 53f
7:50am 2.5ft 15s 7s 9 9 mph 1028.6mb 54f 53f
6:50am 3ft 16s 7s 7 9 mph 1029mb 54f 53f
5:50am 3ft 16s 8s 4 7 mph 1029.2mb 54f 53f
4:50am 3ft 14s 7s 4 7 mph 1029.6mb 54f 53f
3:50am 3ft 14s 7s 4 4 mph 1030mb 55f 53f
2:50am 3.5ft 14s 8s 4 4 mph 1030.4mb 55f 53f
1:50am 3.5ft 17s 7s 4 4 mph 1030.4mb 55f 53f
12:50am 3ft 16s  -  4 4 mph 1030.6mb 55f 53f
Thu 06/22 11:50pm 3.5ft 14s 7s 4 4 mph 1030.9mb 54f 53f
10:50pm 3.5ft 14s 6s 7 7 mph 1030.8mb 54f 52f
9:50pm 3ft 15s 6s 7 9 mph 1030.8mb 54f 52f
8:50pm 3.5ft 14s 6s 2 4 mph 1031mb 53f 52f
7:50pm 3ft 15s 6s 7 9 mph 1030.8mb 53f 52f